Oppenheim, New York
Current Conditions -  °F | °C
As of 8:35 AM on Thursday 30 Oct 2014 (Local Time) from KNY0 Reporting Station
Broken Clouds Broken Clouds  
Wind Chill: 37°   Ceiling: 2000
Heat Index: 41°   Visibility: 10mi
Dew Point: 37°   Wind: 7mph
Humidity: 86%   Direction: 270°W
Pressure: 29.97"   Gusts: NA
Location:  43.1048°N, 74.7138°W
Report Text: KNY0 301235Z AUTO 27006KT 10SM BKN020 BKN026 05/03 A2997 RMK AO2 T00510030
Loading
Personal Weather Stations






























Interactive Weather Map New forecast layout! Learn more

10-Day Weather Forecast

Advertisements
Track Severe Weather on mobile